Aérodrome :
LOGIN :

S'inscrire | Disclaimer

   EN    FR    IT 

 










Légende :    VFR   VFR Marginal   IFR   IFR Intensif   IFR Très Intensif
Visi : 
Plafond : 
>= 8 km
>= 3000ft
5 à 8 km
1000 à 3000 ft
1500m à 5 km
500 à 1000 ft
800 à 1500m
200 à 500 ft
< 800m
< 200 ft
Symboles :   Orages  Brouillard  Fortes neiges  Fortes précipitations  Vent > 20 kt
SIGMETs :   Divers  Orages  Givrage  Turbulence  Onde Orograph.  Cendres Volcan.






- Altitude de l'aérodrome : 245 ft
- Code IATA : BIQ


LFBZ - Biarritz

DERNIER METAR :
  • 140030Z AUTO 30017G31KT 5000 -RA BR FEW008/// BKN014/// BKN020/// ///CB 10/09 Q1003 TEMPO 24020G45KT BKN014

METARs EXPIRÉS :
  • 140000Z AUTO 30016KT 5000 RA BR FEW009/// BKN013/// BKN029/// ///CB 11/10 Q1002 TEMPO 24020G45KT NSW BKN014
  • 132330Z AUTO 24004KT 170V310 9999 FEW052/// BKN066/// BKN110/// ///CB 11/07 Q1002 TEMPO 24020G45KT 4000 -RA BKN014
  • 132300Z AUTO 19007KT 150V230 9999 BKN070 BKN086 BKN150 11/07 Q1002 TEMPO 24020G45KT 4000 -RA BKN014
  • 132230Z AUTO 19006KT 130V240 9999 FEW066/// SCT120/// BKN150/// ///TCU 10/07 Q1002 TEMPO 24020G45KT 4000 -RA BKN014
  • 132200Z AUTO 19005KT 140V240 9999 FEW060/// BKN070/// BKN100/// ///TCU 11/08 Q1003 TEMPO 24020G45KT 4000 -RA BKN014

TAF AMD TAF LFBZ
Valide du 14 à 00h jusqu'au 15 à 00h UTC


140038Z 1400/1424 26010KT 9999 BKN030
TEMPO 1400/1407 24015G25KT 4000 -RA BKN014 FEW020CB
PROB30
TEMPO 1400/1407 24020G45KT
PROB30
TEMPO 1407/1412 VRB15G30KT 4000 SHRA BKN030TCU
BECMG 1413/1415 10008KT
TEMPO 1417/1424 VRB15G25KT 3000 SHRA BKN010 BKN020TCU



MET'MAP, la Météo Aéronautique d'un coup d'oeil ! - Copyright ORBIFLY Décembre 2007 - Disclaimer

ORBIFLY MET'MAP TEAM :

Programmation & Développement : Alexandra Zaïnal
Conception & Développement : Baudouin d'Aumeries
Co-Programmation & Développement : Marc-Olivier Méhu
Soutien technique & logistique : Manuel Goepfert

Contact : metmap@orbifly.com




SOURCES & CREDITS :

   NOAA